Time;durP1;ratioP1;P1;durP2;ratioP2;P2;SDS_P1;SDS_P2;PMS_P1;PMS_P2;Temp;Humidity;BMP_temperature;BMP_pressure;BME280_temperature;BME280_humidity;BME280_pressure;Samples;Min_cycle;Max_cycle;Signal;HPM_P1;HPM_P2
2024/02/22 00:01:35;;;;;;;;;3.00;3.00;;;;;;;;5078343;28;45377;-78
2024/02/22 00:04:00;;;;;;;;;2.67;2.67;;;;;;;;5078044;28;45375;-78
2024/02/22 00:06:26;;;;;;;;;4.67;4.67;;;;;;;;5079400;27;45549;-78
2024/02/22 00:08:52;;;;;;;;;4.00;4.00;;;;;;;;5079683;28;45312;-79
2024/02/22 00:11:17;;;;;;;;;4.00;4.00;;;;;;;;5079392;27;45280;-79
2024/02/22 00:13:42;;;;;;;;;3.67;3.67;;;;;;;;5078298;28;45302;-78
2024/02/22 00:16:08;;;;;;;;;5.33;5.33;;;;;;;;5079364;27;45297;-78
2024/02/22 00:18:33;;;;;;;;;4.00;3.00;;;;;;;;5078901;27;45383;-78
2024/02/22 00:20:59;;;;;;;;;3.00;3.00;;;;;;;;5077950;28;45178;-77
2024/02/22 00:23:24;;;;;;;;;4.00;4.00;;;;;;;;5079606;27;45224;-79
2024/02/22 00:25:49;;;;;;;;;5.00;5.00;;;;;;;;5078014;28;46395;-78
2024/02/22 00:28:16;;;;;;;;;5.00;5.00;;;;;;;;5078044;28;46743;-78
2024/02/22 00:30:43;;;;;;;;;3.67;3.00;;;;;;;;5079291;27;45370;-78
2024/02/22 00:33:08;;;;;;;;;5.00;4.67;;;;;;;;5079460;27;45262;-78
2024/02/22 00:35:33;;;;;;;;;4.00;4.00;;;;;;;;5077684;28;45896;-79
2024/02/22 00:37:59;;;;;;;;;5.00;5.00;;;;;;;;5079133;27;46206;-78
2024/02/22 00:40:24;;;;;;;;;4.00;4.00;;;;;;;;5079517;27;45387;-78
2024/02/22 00:42:49;;;;;;;;;1.00;1.00;;;;;;;;5079416;27;45366;-79
2024/02/22 00:45:15;;;;;;;;;2.00;2.00;;;;;;;;5081012;28;46336;-78
2024/02/22 00:47:40;;;;;;;;;3.00;3.00;;;;;;;;5082382;27;45322;-79
2024/02/22 00:50:05;;;;;;;;;2.00;2.00;;;;;;;;5081032;28;45577;-78
2024/02/22 00:52:31;;;;;;;;;3.33;3.33;;;;;;;;5081239;28;45346;-79
2024/02/22 00:54:56;;;;;;;;;3.00;3.00;;;;;;;;5082289;27;45525;-79
2024/02/22 00:57:21;;;;;;;;;2.00;2.00;;;;;;;;5073071;28;47126;-79
2024/02/22 00:59:46;;;;;;;;;3.00;3.00;;;;;;;;5062195;28;45354;-78
2024/02/22 01:02:11;;;;;;;;;1.00;1.00;;;;;;;;5060522;28;45255;-79
2024/02/22 01:04:37;;;;;;;;;2.33;2.33;;;;;;;;5061800;28;45279;-78
2024/02/22 01:07:02;;;;;;;;;1.00;1.00;;;;;;;;5060589;28;47461;-79
2024/02/22 01:09:27;;;;;;;;;2.00;2.00;;;;;;;;5062360;28;45277;-79
2024/02/22 01:11:53;;;;;;;;;1.67;1.67;;;;;;;;5061273;28;45323;-79
2024/02/22 01:14:19;;;;;;;;;1.00;1.00;;;;;;;;5061977;28;45445;-79
2024/02/22 01:16:45;;;;;;;;;0.50;0.50;;;;;;;;5062023;28;45434;-78
2024/02/22 01:19:10;;;;;;;;;0.67;0.67;;;;;;;;5062358;28;45257;-79
2024/02/22 01:21:36;;;;;;;;;1.00;1.00;;;;;;;;5063908;28;45327;-78
2024/02/22 01:24:01;;;;;;;;;0.00;0.00;;;;;;;;5061705;28;46230;-79
2024/02/22 01:26:26;;;;;;;;;0.75;0.25;;;;;;;;5062377;28;46208;-79
2024/02/22 01:28:54;;;;;;;;;0.00;0.00;;;;;;;;5058911;28;45969;-79
2024/02/22 01:31:20;;;;;;;;;0.00;0.00;;;;;;;;5041259;28;45377;-78
2024/02/22 01:33:46;;;;;;;;;0.00;0.00;;;;;;;;5041627;28;45287;-78
2024/02/22 01:36:11;;;;;;;;;0.25;0.25;;;;;;;;5042814;28;47040;-78
2024/02/22 01:38:36;;;;;;;;;0.00;0.00;;;;;;;;5061699;28;45330;-77
2024/02/22 01:41:02;;;;;;;;;0.00;0.00;;;;;;;;5060285;28;45278;-78
2024/02/22 01:43:27;;;;;;;;;0.00;0.00;;;;;;;;5061577;28;45465;-77
2024/02/22 01:45:53;;;;;;;;;1.00;0.00;;;;;;;;5061367;28;46166;-78
2024/02/22 01:48:18;;;;;;;;;0.75;0.75;;;;;;;;5060954;28;45252;-78
2024/02/22 01:50:43;;;;;;;;;0.50;0.50;;;;;;;;5060759;28;45731;-77
2024/02/22 01:53:10;;;;;;;;;0.00;0.00;;;;;;;;5060868;28;45884;-78
2024/02/22 01:55:36;;;;;;;;;0.50;0.50;;;;;;;;5060667;28;46637;-78
2024/02/22 01:58:01;;;;;;;;;0.00;0.00;;;;;;;;5073072;28;45304;-78
2024/02/22 02:00:27;;;;;;;;;0.00;0.00;;;;;;;;5081658;27;45474;-77
2024/02/22 02:02:52;;;;;;;;;0.25;0.25;;;;;;;;5081073;27;45400;-76
2024/02/22 02:05:17;;;;;;;;;0.00;0.00;;;;;;;;5081052;27;45349;-78
2024/02/22 02:07:43;;;;;;;;;0.25;0.25;;;;;;;;5081418;28;45398;-78
2024/02/22 02:10:09;;;;;;;;;0.00;0.00;;;;;;;;5081389;28;45454;-78
2024/02/22 02:12:34;;;;;;;;;0.00;0.00;;;;;;;;5081233;27;45381;-78
2024/02/22 02:14:59;;;;;;;;;0.00;0.00;;;;;;;;5081191;27;45279;-78
2024/02/22 02:17:24;;;;;;;;;0.00;0.00;;;;;;;;5079716;28;45797;-78
2024/02/22 02:19:51;;;;;;;;;0.00;0.00;;;;;;;;5081190;27;45292;-78
2024/02/22 02:22:26;;;;;;;;;0.75;0.75;;;;;;;;5079893;28;46125;-77
2024/02/22 02:25:01;;;;;;;;;0.00;0.00;;;;;;;;5080942;27;46336;-78
2024/02/22 02:27:26;;;;;;;;;0.00;0.00;;;;;;;;5080945;28;45463;-78
2024/02/22 02:29:51;;;;;;;;;0.00;0.00;;;;;;;;5079744;28;45346;-77
2024/02/22 02:32:16;;;;;;;;;1.00;1.00;;;;;;;;5080695;27;45645;-78
2024/02/22 02:34:41;;;;;;;;;0.25;0.25;;;;;;;;5080832;27;45278;-78
2024/02/22 02:37:06;;;;;;;;;0.00;0.00;;;;;;;;5080913;27;45380;-77
2024/02/22 02:39:32;;;;;;;;;0.67;0.67;;;;;;;;5081039;27;45187;-77
2024/02/22 02:41:59;;;;;;;;;0.00;0.00;;;;;;;;5080739;27;45472;-78
2024/02/22 02:44:24;;;;;;;;;0.00;0.00;;;;;;;;5080797;28;46178;-78
2024/02/22 02:46:49;;;;;;;;;0.00;0.00;;;;;;;;5080548;27;45242;-78
2024/02/22 02:49:14;;;;;;;;;0.00;0.00;;;;;;;;5079256;28;45319;-78
2024/02/22 02:51:39;;;;;;;;;0.00;0.00;;;;;;;;5080573;27;45286;-78
2024/02/22 02:54:05;;;;;;;;;0.00;0.00;;;;;;;;5080293;27;46201;-78
2024/02/22 02:56:31;;;;;;;;;0.00;0.00;;;;;;;;5078524;28;45270;-78
2024/02/22 02:58:57;;;;;;;;;0.00;0.00;;;;;;;;5060514;28;45568;-78
2024/02/22 03:01:22;;;;;;;;;0.25;0.00;;;;;;;;5059897;28;45437;-77
2024/02/22 03:03:47;;;;;;;;;0.00;0.00;;;;;;;;5059883;28;45401;-78
2024/02/22 03:06:12;;;;;;;;;0.00;0.00;;;;;;;;5059416;28;45409;-78
2024/02/22 03:08:38;;;;;;;;;0.00;0.00;;;;;;;;5058572;28;45354;-78
2024/02/22 03:11:03;;;;;;;;;0.00;0.00;;;;;;;;5059930;28;45415;-78
2024/02/22 03:13:28;;;;;;;;;0.00;0.00;;;;;;;;5059907;28;45471;-78
2024/02/22 03:15:53;;;;;;;;;0.25;0.25;;;;;;;;5060037;28;45368;-78
2024/02/22 03:18:18;;;;;;;;;0.00;0.00;;;;;;;;5059939;28;45622;-78
2024/02/22 03:20:44;;;;;;;;;0.00;0.00;;;;;;;;5059732;28;45387;-78
2024/02/22 03:23:09;;;;;;;;;0.25;0.25;;;;;;;;5059887;28;45285;-78
2024/02/22 03:25:34;;;;;;;;;0.33;0.33;;;;;;;;5059625;28;45311;-78
2024/02/22 03:27:59;;;;;;;;;0.00;0.00;;;;;;;;5059845;28;45264;-78
2024/02/22 03:30:28;;;;;;;;;0.00;0.00;;;;;;;;5059738;28;45245;-78
2024/02/22 03:32:53;;;;;;;;;0.00;0.00;;;;;;;;5059418;28;46437;-78
2024/02/22 03:35:19;;;;;;;;;0.00;0.00;;;;;;;;5059543;28;45294;-78
2024/02/22 03:37:44;;;;;;;;;0.00;0.00;;;;;;;;5059801;28;45355;-78
2024/02/22 03:40:10;;;;;;;;;0.00;0.00;;;;;;;;5059735;28;45262;-78
2024/02/22 03:42:35;;;;;;;;;0.00;0.00;;;;;;;;5059517;28;45313;-78
2024/02/22 03:45:01;;;;;;;;;0.00;0.00;;;;;;;;5058087;28;45287;-78
2024/02/22 03:47:26;;;;;;;;;0.00;0.00;;;;;;;;5058134;28;45354;-78
2024/02/22 03:49:52;;;;;;;;;0.33;0.33;;;;;;;;5059375;28;45260;-78
2024/02/22 03:52:17;;;;;;;;;0.00;0.00;;;;;;;;5058995;27;45405;-78
2024/02/22 03:54:42;;;;;;;;;0.00;0.00;;;;;;;;5059359;28;45269;-78
2024/02/22 03:57:08;;;;;;;;;0.00;0.00;;;;;;;;5064236;28;45537;-77
2024/02/22 03:59:33;;;;;;;;;0.00;0.00;;;;;;;;5079729;27;45429;-78
2024/02/22 04:01:58;;;;;;;;;0.00;0.00;;;;;;;;5078989;27;46272;-78
2024/02/22 04:04:23;;;;;;;;;0.00;0.00;;;;;;;;5079454;28;45409;-78
2024/02/22 04:06:49;;;;;;;;;0.00;0.00;;;;;;;;5078454;28;45396;-78
2024/02/22 04:09:14;;;;;;;;;0.33;0.33;;;;;;;;5079573;27;45301;-78
2024/02/22 04:11:40;;;;;;;;;0.25;0.25;;;;;;;;5079428;27;45338;-77
2024/02/22 04:14:05;;;;;;;;;0.00;0.00;;;;;;;;5078086;28;46217;-78
2024/02/22 04:16:30;;;;;;;;;1.33;1.33;;;;;;;;5079471;27;45338;-78
2024/02/22 04:18:55;;;;;;;;;0.33;0.33;;;;;;;;5080921;27;45419;-78
2024/02/22 04:21:20;;;;;;;;;1.33;1.33;;;;;;;;5081536;28;47253;-78
2024/02/22 04:23:45;;;;;;;;;2.00;0.67;;;;;;;;5082941;27;45329;-78
2024/02/22 04:26:11;;;;;;;;;0.33;0.33;;;;;;;;5083055;27;45369;-78
2024/02/22 04:28:36;;;;;;;;;1.00;1.00;;;;;;;;5082568;28;45532;-78
2024/02/22 04:31:04;;;;;;;;;0.33;0.33;;;;;;;;5081251;28;47227;-78
2024/02/22 04:33:30;;;;;;;;;0.00;0.00;;;;;;;;5081384;28;45416;-78
2024/02/22 04:35:55;;;;;;;;;2.00;2.00;;;;;;;;5081623;28;45435;-78
2024/02/22 04:38:22;;;;;;;;;1.33;1.33;;;;;;;;5082632;27;45393;-78
2024/02/22 04:40:47;;;;;;;;;0.33;0.33;;;;;;;;5082586;28;45437;-78
2024/02/22 04:43:13;;;;;;;;;0.67;0.67;;;;;;;;5082727;27;45335;-78
2024/02/22 04:45:38;;;;;;;;;0.67;0.67;;;;;;;;5082844;27;45369;-78
2024/02/22 04:48:03;;;;;;;;;0.00;0.00;;;;;;;;5082602;27;45312;-78
2024/02/22 04:50:30;;;;;;;;;0.33;0.33;;;;;;;;5082354;27;46683;-79
2024/02/22 04:52:55;;;;;;;;;1.33;1.33;;;;;;;;5082429;27;45429;-78
2024/02/22 04:55:21;;;;;;;;;0.33;0.33;;;;;;;;5082832;27;45287;-78
2024/02/22 04:57:49;;;;;;;;;1.00;1.00;;;;;;;;5070897;27;45488;-78
2024/02/22 05:00:15;;;;;;;;;1.33;0.33;;;;;;;;5060945;28;47539;-78
2024/02/22 05:02:40;;;;;;;;;1.33;1.33;;;;;;;;5061893;28;45258;-78
2024/02/22 05:05:06;;;;;;;;;0.00;0.00;;;;;;;;5060793;28;45271;-78
2024/02/22 05:07:31;;;;;;;;;0.33;0.33;;;;;;;;5061804;28;45258;-78
2024/02/22 05:09:57;;;;;;;;;1.00;1.00;;;;;;;;5061737;28;46332;-78
2024/02/22 05:12:22;;;;;;;;;0.00;0.00;;;;;;;;5060418;28;46044;-78
2024/02/22 05:14:47;;;;;;;;;0.33;0.00;;;;;;;;5062009;28;45408;-78
2024/02/22 05:17:12;;;;;;;;;1.00;1.00;;;;;;;;5060192;28;46247;-78
2024/02/22 05:19:38;;;;;;;;;0.00;0.00;;;;;;;;5061720;28;45377;-78
2024/02/22 05:22:03;;;;;;;;;0.33;0.33;;;;;;;;5061792;28;45338;-78
2024/02/22 05:24:30;;;;;;;;;0.00;0.00;;;;;;;;5061852;28;45338;-78
2024/02/22 05:26:58;;;;;;;;;0.00;0.00;;;;;;;;5061400;28;45275;-78
2024/02/22 05:29:24;;;;;;;;;0.25;0.25;;;;;;;;5060929;28;46141;-78
2024/02/22 05:31:50;;;;;;;;;0.25;0.25;;;;;;;;5061294;28;45342;-78
2024/02/22 05:34:15;;;;;;;;;0.25;0.25;;;;;;;;5060795;28;45375;-78
2024/02/22 05:36:40;;;;;;;;;0.33;0.33;;;;;;;;5061459;28;45544;-78
2024/02/22 05:39:07;;;;;;;;;1.00;1.00;;;;;;;;5061513;28;45308;-78
2024/02/22 05:41:32;;;;;;;;;1.00;1.00;;;;;;;;5060028;28;45366;-78
2024/02/22 05:43:57;;;;;;;;;1.33;1.33;;;;;;;;5060141;28;45395;-78
2024/02/22 05:46:22;;;;;;;;;2.67;2.67;;;;;;;;5061080;28;45335;-78
2024/02/22 05:48:48;;;;;;;;;1.33;1.33;;;;;;;;5061168;28;46298;-78
2024/02/22 05:51:13;;;;;;;;;2.33;2.33;;;;;;;;5059782;28;45911;-78
2024/02/22 05:53:40;;;;;;;;;3.33;3.33;;;;;;;;5060546;28;45374;-78
2024/02/22 05:56:05;;;;;;;;;4.67;4.00;;;;;;;;5059340;28;46132;-78
2024/02/22 05:58:30;;;;;;;;;1.33;1.33;;;;;;;;5065533;28;45399;-78
2024/02/22 06:00:55;;;;;;;;;3.33;3.33;;;;;;;;5060470;28;45315;-78
2024/02/22 06:03:21;;;;;;;;;2.67;2.67;;;;;;;;5058529;28;45388;-78
2024/02/22 06:05:47;;;;;;;;;5.33;5.33;;;;;;;;5058286;28;46331;-78
2024/02/22 06:08:12;;;;;;;;;4.33;2.67;;;;;;;;5059599;28;47870;-78
2024/02/22 06:10:38;;;;;;;;;2.33;2.33;;;;;;;;5059443;28;45545;-78
2024/02/22 06:13:03;;;;;;;;;4.33;3.33;;;;;;;;5059870;28;45214;-78
2024/02/22 06:15:28;;;;;;;;;2.00;1.67;;;;;;;;5059456;28;46976;-77
2024/02/22 06:17:54;;;;;;;;;1.33;1.33;;;;;;;;5060588;28;46463;-78
2024/02/22 06:20:19;;;;;;;;;0.33;0.33;;;;;;;;5059335;28;45319;-77
2024/02/22 06:22:44;;;;;;;;;2.67;1.33;;;;;;;;5060968;28;45268;-78
2024/02/22 06:25:09;;;;;;;;;2.33;0.67;;;;;;;;5060566;28;45311;-78
2024/02/22 06:27:35;;;;;;;;;2.33;2.33;;;;;;;;5059220;28;47353;-78
2024/02/22 06:30:00;;;;;;;;;0.33;0.33;;;;;;;;5060873;28;45315;-78
2024/02/22 06:32:26;;;;;;;;;0.33;0.33;;;;;;;;5060619;28;45354;-78
2024/02/22 06:34:51;;;;;;;;;1.00;1.00;;;;;;;;5058543;28;46922;-78
2024/02/22 06:37:17;;;;;;;;;1.33;1.33;;;;;;;;5059907;28;46158;-78
2024/02/22 06:39:43;;;;;;;;;0.33;0.33;;;;;;;;5060002;28;45417;-78
2024/02/22 06:42:08;;;;;;;;;1.33;1.33;;;;;;;;5059548;28;45560;-78
2024/02/22 06:44:33;;;;;;;;;0.67;0.67;;;;;;;;5058414;28;45871;-78
2024/02/22 06:46:58;;;;;;;;;1.00;1.00;;;;;;;;5060171;28;45330;-77
2024/02/22 06:49:24;;;;;;;;;0.67;0.67;;;;;;;;5060350;28;45377;-77
2024/02/22 06:51:50;;;;;;;;;0.67;0.67;;;;;;;;5060509;28;45361;-76
2024/02/22 06:54:15;;;;;;;;;1.33;1.00;;;;;;;;5058614;28;45322;-77
2024/02/22 06:56:40;;;;;;;;;1.33;1.33;;;;;;;;5062270;28;46476;-78
2024/02/22 06:59:06;;;;;;;;;1.00;0.33;;;;;;;;5080544;27;45349;-78
2024/02/22 07:01:33;;;;;;;;;0.00;0.00;;;;;;;;5080528;27;45282;-77
2024/02/22 07:03:58;;;;;;;;;0.33;0.33;;;;;;;;5080224;28;45399;-77
2024/02/22 07:06:23;;;;;;;;;0.00;0.00;;;;;;;;5079173;28;48132;-77
2024/02/22 07:08:48;;;;;;;;;0.00;0.00;;;;;;;;5080609;27;45309;-78
2024/02/22 07:11:14;;;;;;;;;0.00;0.00;;;;;;;;5079394;28;45504;-77
2024/02/22 07:13:39;;;;;;;;;0.00;0.00;;;;;;;;5079195;28;47480;-78
2024/02/22 07:16:06;;;;;;;;;0.00;0.00;;;;;;;;5080476;27;45270;-77
2024/02/22 07:18:32;;;;;;;;;0.00;0.00;;;;;;;;5080143;27;45318;-77
2024/02/22 07:20:57;;;;;;;;;0.00;0.00;;;;;;;;5080502;27;45316;-79
2024/02/22 07:23:22;;;;;;;;;0.33;0.33;;;;;;;;5078806;28;46064;-76
2024/02/22 07:25:47;;;;;;;;;0.33;0.33;;;;;;;;5080289;28;45979;-80
2024/02/22 07:28:14;;;;;;;;;0.00;0.00;;;;;;;;5077644;28;45376;-79
2024/02/22 07:30:39;;;;;;;;;0.00;0.00;;;;;;;;5058931;28;45397;-75
2024/02/22 07:33:04;;;;;;;;;0.00;0.00;;;;;;;;5059368;28;45322;-78
2024/02/22 07:35:30;;;;;;;;;0.00;0.00;;;;;;;;5057066;28;47272;-79
2024/02/22 07:37:56;;;;;;;;;0.00;0.00;;;;;;;;5059592;28;45319;-77
2024/02/22 07:40:21;;;;;;;;;0.00;0.00;;;;;;;;5059706;28;45229;-77
2024/02/22 07:42:46;;;;;;;;;0.00;0.00;;;;;;;;5059546;28;45523;-76
2024/02/22 07:45:11;;;;;;;;;0.00;0.00;;;;;;;;5059608;28;45469;-77
2024/02/22 07:47:36;;;;;;;;;0.00;0.00;;;;;;;;5059414;28;45343;-77
2024/02/22 07:50:02;;;;;;;;;0.33;0.00;;;;;;;;5058283;28;45292;-78
2024/02/22 07:52:27;;;;;;;;;0.00;0.00;;;;;;;;5059577;28;45305;-80
2024/02/22 07:54:52;;;;;;;;;0.00;0.00;;;;;;;;5058365;28;47154;-80
2024/02/22 07:57:17;;;;;;;;;0.00;0.00;;;;;;;;5059292;28;45342;-81
2024/02/22 07:59:43;;;;;;;;;0.00;0.00;;;;;;;;5059660;28;45358;-81
2024/02/22 08:02:09;;;;;;;;;0.33;0.33;;;;;;;;5057897;28;46308;-81
2024/02/22 08:04:35;;;;;;;;;0.00;0.00;;;;;;;;5058998;28;46161;-81
2024/02/22 08:07:00;;;;;;;;;8.00;8.00;;;;;;;;5059257;28;45291;-81
2024/02/22 08:09:26;;;;;;;;;2.00;2.00;;;;;;;;5059965;28;45872;-80
2024/02/22 08:11:51;;;;;;;;;2.00;1.00;;;;;;;;5057715;28;47302;-78
2024/02/22 08:14:16;;;;;;;;;2.00;2.00;;;;;;;;5057033;28;46030;-79
2024/02/22 08:16:42;;;;;;;;;7.67;6.00;;;;;;;;5055319;28;45434;-79
2024/02/22 08:19:07;;;;;;;;;6.00;4.33;;;;;;;;5056329;28;45440;-79
2024/02/22 08:21:32;;;;;;;;;1.00;0.33;;;;;;;;5058811;28;45497;-80
2024/02/22 08:23:57;;;;;;;;;0.00;0.00;;;;;;;;5059148;28;48421;-78
2024/02/22 08:26:22;;;;;;;;;0.00;0.00;;;;;;;;5059187;28;45913;-78
2024/02/22 08:28:48;;;;;;;;;0.00;0.00;;;;;;;;5060184;28;45361;-78
2024/02/22 08:31:13;;;;;;;;;0.33;0.33;;;;;;;;5058727;28;45454;-79
2024/02/22 08:33:39;;;;;;;;;0.00;0.00;;;;;;;;5057619;28;47060;-78
2024/02/22 08:36:06;;;;;;;;;0.00;0.00;;;;;;;;5060251;28;45319;-79
2024/02/22 08:38:31;;;;;;;;;0.75;0.75;;;;;;;;5059246;28;45354;-79
2024/02/22 08:40:56;;;;;;;;;0.00;0.00;;;;;;;;5059287;28;45334;-79
2024/02/22 08:43:21;;;;;;;;;0.00;0.00;;;;;;;;5059100;28;45384;-80
2024/02/22 08:45:51;;;;;;;;;1.00;0.00;;;;;;;;5058339;28;46141;-80
2024/02/22 08:48:16;;;;;;;;;0.00;0.00;;;;;;;;5059021;28;45282;-78
2024/02/22 08:50:42;;;;;;;;;0.00;0.00;;;;;;;;5067168;28;45287;-78
2024/02/22 08:53:07;;;;;;;;;0.00;0.00;;;;;;;;5079176;28;47250;-78
2024/02/22 08:55:32;;;;;;;;;0.00;0.00;;;;;;;;5079075;28;45405;-79
2024/02/22 08:57:57;;;;;;;;;0.00;0.00;;;;;;;;5064866;28;45353;-80
2024/02/22 09:00:23;;;;;;;;;0.00;0.00;;;;;;;;5059722;28;46333;-80
2024/02/22 09:02:48;;;;;;;;;0.25;0.25;;;;;;;;5059393;28;46136;-79
2024/02/22 09:05:13;;;;;;;;;0.00;0.00;;;;;;;;5060181;28;45353;-79
2024/02/22 09:07:39;;;;;;;;;0.00;0.00;;;;;;;;5062105;28;45294;-80
2024/02/22 09:10:06;;;;;;;;;0.00;0.00;;;;;;;;5061895;28;45540;-80
2024/02/22 09:12:31;;;;;;;;;0.00;0.00;;;;;;;;5061869;28;46669;-82
2024/02/22 09:14:56;;;;;;;;;0.50;0.50;;;;;;;;5059134;28;45386;-81
2024/02/22 09:17:22;;;;;;;;;0.25;0.25;;;;;;;;5064052;28;45332;-78
2024/02/22 09:19:49;;;;;;;;;0.00;0.00;;;;;;;;5061914;28;45264;-80
2024/02/22 09:22:14;;;;;;;;;0.00;0.00;;;;;;;;5060136;28;47253;-79
2024/02/22 09:24:43;;;;;;;;;0.00;0.00;;;;;;;;5061767;28;45293;-79
2024/02/22 09:27:08;;;;;;;;;0.00;0.00;;;;;;;;5061842;28;45409;-79
2024/02/22 09:29:35;;;;;;;;;0.00;0.00;;;;;;;;5060379;28;46092;-79
2024/02/22 09:32:00;;;;;;;;;0.00;0.00;;;;;;;;5061889;28;45424;-79
2024/02/22 09:34:27;;;;;;;;;0.00;0.00;;;;;;;;5062316;28;45299;-79
2024/02/22 09:36:52;;;;;;;;;0.00;0.00;;;;;;;;5063379;28;45386;-78
2024/02/22 09:39:20;;;;;;;;;0.00;0.00;;;;;;;;5061724;28;45229;-79
2024/02/22 09:41:46;;;;;;;;;0.00;0.00;;;;;;;;5062900;28;45376;-79
2024/02/22 09:44:12;;;;;;;;;0.00;0.00;;;;;;;;5062337;28;45157;-79
2024/02/22 09:46:38;;;;;;;;;0.00;0.00;;;;;;;;5061801;28;45409;-78
2024/02/22 09:49:03;;;;;;;;;0.50;0.00;;;;;;;;5063627;28;45448;-76
2024/02/22 09:51:30;;;;;;;;;0.00;0.00;;;;;;;;5065112;28;46506;-77
2024/02/22 09:53:55;;;;;;;;;0.33;0.33;;;;;;;;5062131;28;45348;-76
2024/02/22 09:56:20;;;;;;;;;0.00;0.00;;;;;;;;5063886;28;45435;-79
2024/02/22 09:58:46;;;;;;;;;0.00;0.00;;;;;;;;5082807;28;45583;-79
2024/02/22 10:01:12;;;;;;;;;2.00;0.00;;;;;;;;5082536;27;46074;-79
2024/02/22 10:03:40;;;;;;;;;0.25;0.25;;;;;;;;5083284;27;45279;-79
2024/02/22 10:06:27;;;;;;;;;0.00;0.00;;;;;;;;5080630;28;45326;-79
2024/02/22 10:08:56;;;;;;;;;1.00;1.00;;;;;;;;5080942;28;46237;-78
2024/02/22 10:11:22;;;;;;;;;0.00;0.00;;;;;;;;5064997;27;45620;-79
2024/02/22 10:13:47;;;;;;;;;0.00;0.00;;;;;;;;5061895;28;45434;-79
2024/02/22 10:16:13;;;;;;;;;0.00;0.00;;;;;;;;5060972;28;45296;-80
2024/02/22 10:18:39;;;;;;;;;0.00;0.00;;;;;;;;5061017;28;46103;-80
2024/02/22 10:21:12;;;;;;;;;0.00;0.00;;;;;;;;5061011;28;45267;-80
2024/02/22 10:23:37;;;;;;;;;0.00;0.00;;;;;;;;5061163;28;45366;-81
2024/02/22 10:26:03;;;;;;;;;0.00;0.00;;;;;;;;5061391;28;45324;-81
2024/02/22 10:28:28;;;;;;;;;0.00;0.00;;;;;;;;5059600;28;47018;-80
2024/02/22 10:31:02;;;;;;;;;0.00;0.00;;;;;;;;5060379;28;46047;-80
2024/02/22 10:33:28;;;;;;;;;0.00;0.00;;;;;;;;5060370;28;45291;-81
2024/02/22 10:35:54;;;;;;;;;1.00;1.00;;;;;;;;5061354;28;45268;-80
2024/02/22 10:38:19;;;;;;;;;0.75;0.75;;;;;;;;5061115;28;45655;-78
2024/02/22 10:40:45;;;;;;;;;2.00;2.00;;;;;;;;5060889;28;45588;-79
2024/02/22 10:43:11;;;;;;;;;0.67;0.67;;;;;;;;5061528;28;45258;-77
2024/02/22 10:45:41;;;;;;;;;0.50;0.00;;;;;;;;5061311;28;45270;-77
2024/02/22 10:48:08;;;;;;;;;1.00;1.00;;;;;;;;5060509;28;45375;-77
2024/02/22 10:50:34;;;;;;;;;1.33;0.33;;;;;;;;5060646;28;46182;-79
2024/02/22 10:53:02;;;;;;;;;2.75;0.00;;;;;;;;5061269;28;45452;-78
2024/02/22 10:55:27;;;;;;;;;0.50;0.00;;;;;;;;5059181;28;45313;-77
2024/02/22 10:57:54;;;;;;;;;1.00;1.00;;;;;;;;5072622;28;45408;-76
2024/02/22 11:00:20;;;;;;;;;1.00;1.00;;;;;;;;5079452;28;47378;-79
2024/02/22 11:02:46;;;;;;;;;1.00;1.00;;;;;;;;5080207;28;46039;-78
2024/02/22 11:05:12;;;;;;;;;1.33;1.33;;;;;;;;5080760;28;45377;-77
2024/02/22 11:07:48;;;;;;;;;1.00;1.00;;;;;;;;5083297;27;45352;-79
2024/02/22 11:10:13;;;;;;;;;0.00;0.00;;;;;;;;5056827;28;47642;-78
2024/02/22 11:12:42;;;;;;;;;0.00;0.00;;;;;;;;5059796;28;45745;-78
2024/02/22 11:15:09;;;;;;;;;0.00;0.00;;;;;;;;5062516;28;45237;-76
2024/02/22 11:17:35;;;;;;;;;0.67;0.67;;;;;;;;5060405;28;47506;-78
2024/02/22 11:20:07;;;;;;;;;0.00;0.00;;;;;;;;5064593;28;45443;-78
2024/02/22 11:22:36;;;;;;;;;1.00;1.00;;;;;;;;5061756;28;45298;-78
2024/02/22 11:25:07;;;;;;;;;0.00;0.00;;;;;;;;5062136;28;45260;-77
2024/02/22 11:27:32;;;;;;;;;0.00;0.00;;;;;;;;5059567;28;45524;-78
2024/02/22 11:29:59;;;;;;;;;0.00;0.00;;;;;;;;5059911;28;45411;-77
2024/02/22 11:32:24;;;;;;;;;1.00;0.33;;;;;;;;5060084;28;45378;-78
2024/02/22 11:34:53;;;;;;;;;0.33;0.33;;;;;;;;5061072;28;45406;-80
2024/02/22 11:37:19;;;;;;;;;0.00;0.00;;;;;;;;5062604;28;45476;-80
2024/02/22 11:39:45;;;;;;;;;0.00;0.00;;;;;;;;5060118;28;47223;-80
2024/02/22 11:42:18;;;;;;;;;0.00;0.00;;;;;;;;5060662;28;45316;-81
2024/02/22 11:44:43;;;;;;;;;0.25;0.00;;;;;;;;5060018;28;45296;-80
2024/02/22 11:47:10;;;;;;;;;0.00;0.00;;;;;;;;5059746;28;46319;-80
2024/02/22 11:49:35;;;;;;;;;0.33;0.33;;;;;;;;5058654;28;46260;-79
2024/02/22 11:52:01;;;;;;;;;0.00;0.00;;;;;;;;5052895;28;45368;-77
2024/02/22 11:54:26;;;;;;;;;0.00;0.00;;;;;;;;5059651;28;45390;-80
2024/02/22 11:56:52;;;;;;;;;1.67;1.00;;;;;;;;5064311;28;45223;-79
2024/02/22 11:59:17;;;;;;;;;1.00;1.00;;;;;;;;5055633;27;46355;-78
2024/02/22 12:02:03;;;;;;;;;0.00;0.00;;;;;;;;5053521;28;45471;-79
2024/02/22 12:04:54;;;;;;;;;0.00;0.00;;;;;;;;5057334;28;45545;-79
2024/02/22 12:08:04;;;;;;;;;0.00;0.00;;;;;;;;5058855;28;45484;-79
2024/02/22 12:14:23;;;;;;;;;0.00;0.00;;;;;;;;5018576;28;45388;-78
2024/02/22 12:20:15;;;;;;;;;0.00;0.00;;;;;;;;4956836;28;45341;-80
2024/02/22 12:22:47;;;;;;;;;0.00;0.00;;;;;;;;4958061;28;46554;-80
2024/02/22 12:25:12;;;;;;;;;0.00;0.00;;;;;;;;5031396;28;45400;-79
2024/02/22 12:27:37;;;;;;;;;0.00;0.00;;;;;;;;5060797;28;45565;-78
2024/02/22 12:30:03;;;;;;;;;0.00;0.00;;;;;;;;5060721;28;45504;-79
2024/02/22 12:32:30;;;;;;;;;0.00;0.00;;;;;;;;5059198;28;46486;-79
2024/02/22 12:34:59;;;;;;;;;0.00;0.00;;;;;;;;5059431;28;45314;-79
2024/02/22 12:37:25;;;;;;;;;0.00;0.00;;;;;;;;5059585;27;45343;-79
2024/02/22 12:39:53;;;;;;;;;0.00;0.00;;;;;;;;5059316;28;45556;-78
2024/02/22 12:42:19;;;;;;;;;0.00;0.00;;;;;;;;5061414;28;47298;-78
2024/02/22 12:44:44;;;;;;;;;0.00;0.00;;;;;;;;5062548;28;45263;-78
2024/02/22 12:47:11;;;;;;;;;0.00;0.00;;;;;;;;5062827;28;45466;-79
2024/02/22 12:49:38;;;;;;;;;0.00;0.00;;;;;;;;5062638;28;45410;-78
2024/02/22 12:52:03;;;;;;;;;0.00;0.00;;;;;;;;5060755;28;47036;-79
2024/02/22 12:54:28;;;;;;;;;1.00;0.00;;;;;;;;5062354;28;45138;-80
2024/02/22 12:56:54;;;;;;;;;0.00;0.00;;;;;;;;5062504;28;45326;-79
2024/02/22 12:59:19;;;;;;;;;0.00;0.00;;;;;;;;5062111;28;45453;-79
2024/02/22 13:01:47;;;;;;;;;0.00;0.00;;;;;;;;5061911;28;46346;-79
2024/02/22 13:04:12;;;;;;;;;0.67;0.67;;;;;;;;5061683;28;45177;-79
2024/02/22 13:06:40;;;;;;;;;0.00;0.00;;;;;;;;5052811;28;45303;-78
2024/02/22 13:09:05;;;;;;;;;0.00;0.00;;;;;;;;5060317;28;46002;-78
2024/02/22 13:11:31;;;;;;;;;0.00;0.00;;;;;;;;5059714;28;48224;-78
2024/02/22 13:13:57;;;;;;;;;1.00;0.00;;;;;;;;5059709;28;46160;-79
2024/02/22 13:16:26;;;;;;;;;0.00;0.00;;;;;;;;5061533;28;45346;-79
2024/02/22 13:18:52;;;;;;;;;0.00;0.00;;;;;;;;5061905;28;45337;-79
2024/02/22 13:21:20;;;;;;;;;0.25;0.25;;;;;;;;5061730;28;45557;-78
2024/02/22 13:23:45;;;;;;;;;0.00;0.00;;;;;;;;5060554;28;46107;-78
2024/02/22 13:26:10;;;;;;;;;0.00;0.00;;;;;;;;5061775;28;45551;-77
2024/02/22 13:28:35;;;;;;;;;0.00;0.00;;;;;;;;5061633;28;45597;-77
2024/02/22 13:31:01;;;;;;;;;0.00;0.00;;;;;;;;5061432;28;46329;-78
2024/02/22 13:33:26;;;;;;;;;0.00;0.00;;;;;;;;5061727;28;45435;-77
2024/02/22 13:35:51;;;;;;;;;0.00;0.00;;;;;;;;5060053;28;45359;-79
2024/02/22 13:38:16;;;;;;;;;0.00;0.00;;;;;;;;5061333;28;45483;-78
2024/02/22 13:40:41;;;;;;;;;0.00;0.00;;;;;;;;5060165;28;47271;-77
2024/02/22 13:43:07;;;;;;;;;0.75;0.00;;;;;;;;5060124;28;45339;-78
2024/02/22 13:45:43;;;;;;;;;0.00;0.00;;;;;;;;5061012;28;45469;-78
2024/02/22 13:48:11;;;;;;;;;0.00;0.00;;;;;;;;5054703;28;45344;-78
2024/02/22 13:50:37;;;;;;;;;0.00;0.00;;;;;;;;5060571;28;45386;-78
2024/02/22 13:53:02;;;;;;;;;0.00;0.00;;;;;;;;5060067;28;45375;-82
2024/02/22 13:55:28;;;;;;;;;0.00;0.00;;;;;;;;5061315;28;45394;-78
2024/02/22 13:57:58;;;;;;;;;0.00;0.00;;;;;;;;5076097;28;45385;-78
2024/02/22 14:00:26;;;;;;;;;0.00;0.00;;;;;;;;5052913;28;45268;-77
2024/02/22 14:02:51;;;;;;;;;0.00;0.00;;;;;;;;5065647;28;45826;-77
2024/02/22 14:05:17;;;;;;;;;0.00;0.00;;;;;;;;5064172;28;45489;-78
2024/02/22 14:07:47;;;;;;;;;0.00;0.00;;;;;;;;5057222;28;45434;-76
2024/02/22 14:10:12;;;;;;;;;0.00;0.00;;;;;;;;5048373;28;45669;-75
2024/02/22 14:12:37;;;;;;;;;0.00;0.00;;;;;;;;5055946;28;45648;-76
2024/02/22 14:15:02;;;;;;;;;0.00;0.00;;;;;;;;5051715;28;45296;-76
2024/02/22 14:17:27;;;;;;;;;0.00;0.00;;;;;;;;5060613;28;47746;-78
2024/02/22 14:19:53;;;;;;;;;0.00;0.00;;;;;;;;5059754;28;45357;-78
2024/02/22 14:22:18;;;;;;;;;0.00;0.00;;;;;;;;5056283;28;45369;-77
2024/02/22 14:24:43;;;;;;;;;0.00;0.00;;;;;;;;5062156;28;45604;-76
2024/02/22 14:27:09;;;;;;;;;0.00;0.00;;;;;;;;5074699;28;45268;-76
2024/02/22 14:29:35;;;;;;;;;0.00;0.00;;;;;;;;5066175;28;45260;-76
2024/02/22 14:32:00;;;;;;;;;0.00;0.00;;;;;;;;5065926;28;45229;-76
2024/02/22 14:34:27;;;;;;;;;0.00;0.00;;;;;;;;5064784;28;45867;-77
2024/02/22 14:36:53;;;;;;;;;0.00;0.00;;;;;;;;5062281;28;45659;-77
2024/02/22 14:39:18;;;;;;;;;0.00;0.00;;;;;;;;5064143;28;48223;-77
2024/02/22 14:41:43;;;;;;;;;0.00;0.00;;;;;;;;5063727;28;45311;-77
2024/02/22 14:44:08;;;;;;;;;0.00;0.00;;;;;;;;5059529;28;45542;-76